KJRB/JRB METAR and TAF weather

Enter ICAO airport designator
Station Type Date Time Source
KJRB METAR 2020/07/10 15:07 UTC NOAA

KJRB 101507Z AUTO 03014KT 8SM -RA BKN013 OVC019 24/23 A2990 RMK AO2 P0001


Station Type Date Time Source
KJRB Decoded METAR 2020/07/10 15:07 UTC NOAA

Station name not available
Jul 10, 2020 - 11:07 AM EDT / 2020.07.10 1507 UTC
Wind: from the NNE (030 degrees) at 16 MPH (14 KT):0
Visibility: 8 mile(s):0
Sky conditions: overcast
Weather: light rain
Precipitation last hour: 0.01 inches
Temperature: 75 F (24 C)
Dew Point: 73 F (23 C)
Relative Humidity: 94%
Pressure (altimeter): 29.9 in. Hg (1012 hPa)
ob: KJRB 101507Z AUTO 03014KT 8SM -RA BKN013 OVC019 24/23 A2990 RMK AO2 P0001
cycle: 15

Station Type Date Time Source
KJRB TAF UTC NOAA

Error!

Example: see airport list